Terminal Aerodrome Forecast
Issued by NWS Wilmington, NC

Home | Current Version | Previous Version | Text Only | Print | Product List | Glossary On
Versions: 1 2 3 4 5 6 7 8 9 10 11 12 13 14 15 16 17 18 19 20 21 22 23 24 25 26 27 28 29
000
FTUS42 KILM 260001 CCA
TAFFLO
TAF COR
KFLO 260001Z 2600/2624 25009G19KT P6SM SKC
     FM260100 24010KT P6SM SKC
     FM260200 25010G17KT P6SM SKC
     FM260300 26007KT P6SM SKC
     FM261800 25011G18KT P6SM SKC
     FM262200 25008KT P6SM SKC=

USA.gov is the U.S. government's official web portal to all federal, state and local government web resources and services.